createdAt,value
2022-10-30T00:00:45.300Z,99659.09
2022-10-30T00:01:47.556Z,99660.94
2022-10-30T00:02:52.697Z,99658.31
2022-10-30T00:03:54.913Z,99647.91
2022-10-30T00:04:57.074Z,99649.03
2022-10-30T00:05:59.238Z,99652.34
2022-10-30T00:07:01.460Z,99647.38
2022-10-30T00:08:03.784Z,99652.31
2022-10-30T00:09:06.067Z,99653.50
2022-10-30T00:10:09.162Z,99645.22
2022-10-30T00:11:13.343Z,99645.25
2022-10-30T00:12:15.564Z,99645.66
2022-10-30T00:13:19.149Z,99648.78
2022-10-30T00:14:21.848Z,99645.75
2022-10-30T00:15:24.038Z,99644.59
2022-10-30T00:16:26.597Z,99646.66
2022-10-30T00:17:28.794Z,99638.75
2022-10-30T00:18:31.530Z,99644.47
2022-10-30T00:19:33.705Z,99642.38
2022-10-30T00:20:36.517Z,99644.47
2022-10-30T00:21:38.758Z,99628.13
2022-10-30T00:22:41.076Z,99635.56
2022-10-30T00:23:49.875Z,99632.97
2022-10-30T00:24:52.404Z,99628.50
2022-10-30T00:25:54.600Z,99628.56
2022-10-30T00:26:56.754Z,99629.69
2022-10-30T00:27:59.151Z,99634.09
2022-10-30T00:29:01.287Z,99633.25
2022-10-30T00:30:03.801Z,99632.09
2022-10-30T00:31:06.204Z,99633.59
2022-10-30T00:32:08.470Z,99633.66
2022-10-30T00:33:10.702Z,99621.22
2022-10-30T00:34:12.893Z,99628.00
2022-10-30T00:35:15.201Z,99629.91
2022-10-30T00:36:17.460Z,99618.66
2022-10-30T00:37:20.005Z,99623.63
2022-10-30T00:38:22.362Z,99622.66
2022-10-30T00:39:24.808Z,99614.25
2022-10-30T00:40:27.360Z,99619.53
2022-10-30T00:41:30.359Z,99622.28
2022-10-30T00:42:32.798Z,99612.34
2022-10-30T00:43:38.676Z,99607.94
2022-10-30T00:44:52.604Z,99600.28
2022-10-30T00:45:55.698Z,99610.44
2022-10-30T00:47:04.498Z,99596.47
2022-10-30T00:48:10.238Z,99604.50
2022-10-30T00:49:16.520Z,99596.97
2022-10-30T00:51:36.472Z,99591.09
2022-10-30T00:52:45.887Z,99593.94
2022-10-30T00:53:48.960Z,99595.72
2022-10-30T00:54:53.777Z,99592.88
2022-10-30T00:56:01.188Z,99591.53
2022-10-30T00:57:07.645Z,99598.22
2022-10-30T00:58:15.242Z,99587.25
2022-10-30T00:59:26.428Z,99594.88
2022-10-30T01:00:30.668Z,99595.56
2022-10-30T01:01:36.622Z,99598.13
2022-10-30T01:02:40.995Z,99602.81
2022-10-30T01:03:43.864Z,99603.41
2022-10-30T01:04:48.669Z,99598.91
2022-10-30T01:05:56.897Z,99605.13
2022-10-30T01:07:05.453Z,99609.47
2022-10-30T01:08:07.648Z,99601.16
2022-10-30T01:09:10.236Z,99604.28
2022-10-30T01:10:14.129Z,99600.56
2022-10-30T01:11:16.510Z,99598.44
2022-10-30T01:12:18.727Z,99599.00
2022-10-30T01:13:23.269Z,99594.88
2022-10-30T01:14:25.768Z,99611.22
2022-10-30T01:15:35.690Z,99595.25
2022-10-30T01:17:02.765Z,99599.66
2022-10-30T01:18:42.952Z,99601.22
2022-10-30T01:19:57.395Z,99606.41
2022-10-30T01:21:14.790Z,99603.28
2022-10-30T01:22:52.368Z,99603.91
2022-10-30T01:24:20.112Z,99608.84
2022-10-30T01:25:53.994Z,99593.06
2022-10-30T01:27:08.288Z,99602.53
2022-10-30T01:28:26.173Z,99592.28
2022-10-30T01:30:01.707Z,99598.75
2022-10-30T01:31:13.957Z,99592.22
2022-10-30T01:32:32.285Z,99590.56
2022-10-30T01:33:40.910Z,99591.97
2022-10-30T01:34:58.315Z,99590.09
2022-10-30T01:36:18.942Z,99588.53
2022-10-30T01:37:27.126Z,99592.34
2022-10-30T01:38:36.849Z,99588.63
2022-10-30T01:39:41.044Z,99588.63
2022-10-30T01:40:46.186Z,99581.53
2022-10-30T01:41:48.402Z,99579.66
2022-10-30T01:43:01.511Z,99579.53
2022-10-30T01:44:14.329Z,99576.50
2022-10-30T01:45:26.581Z,99566.81
2022-10-30T01:46:35.002Z,99570.41
2022-10-30T01:47:58.426Z,99569.31
2022-10-30T01:49:30.618Z,99566.19
2022-10-30T01:50:48.176Z,99568.38
2022-10-30T01:52:13.728Z,99566.44
2022-10-30T01:53:36.996Z,99567.84
2022-10-30T01:55:09.272Z,99561.19
2022-10-30T01:56:37.617Z,99559.72
2022-10-30T01:57:46.866Z,99564.91
2022-10-30T01:59:03.491Z,99560.34
2022-10-30T02:00:09.284Z,99562.91
2022-10-30T02:01:23.751Z,99567.09
2022-10-30T02:02:26.463Z,99558.09
2022-10-30T02:03:30.832Z,99559.84
2022-10-30T02:04:34.099Z,99560.41
2022-10-30T02:05:41.209Z,99561.34
2022-10-30T02:06:43.595Z,99570.81
2022-10-30T02:07:46.096Z,99556.84
2022-10-30T02:08:49.168Z,99563.22
2022-10-30T02:09:53.653Z,99565.91
2022-10-30T02:10:56.294Z,99563.44
2022-10-30T02:12:11.846Z,99567.84
2022-10-30T02:13:15.465Z,99558.31
2022-10-30T02:14:24.666Z,99563.78
2022-10-30T02:15:29.766Z,99564.81
2022-10-30T02:16:35.944Z,99561.47
2022-10-30T02:17:40.481Z,99557.00
2022-10-30T02:18:42.775Z,99552.06
2022-10-30T02:19:45.029Z,99560.72
2022-10-30T02:20:48.123Z,99569.28
2022-10-30T02:21:51.042Z,99568.78
2022-10-30T02:22:57.972Z,99569.06
2022-10-30T02:24:06.984Z,99565.13
2022-10-30T02:25:09.862Z,99566.56
2022-10-30T02:26:12.059Z,99560.28
2022-10-30T02:27:14.453Z,99559.88
2022-10-30T02:28:16.739Z,99562.91
2022-10-30T02:29:20.683Z,99555.25
2022-10-30T02:30:23.069Z,99562.78
2022-10-30T02:31:25.464Z,99569.88
2022-10-30T02:32:27.832Z,99557.75
2022-10-30T02:33:30.552Z,99565.50
2022-10-30T02:34:32.783Z,99567.84
2022-10-30T02:35:35.315Z,99566.22
2022-10-30T02:36:38.656Z,99559.19
2022-10-30T02:37:40.850Z,99560.09
2022-10-30T02:38:44.059Z,99559.22
2022-10-30T02:39:46.421Z,99561.81
2022-10-30T02:40:50.058Z,99556.03
2022-10-30T02:41:52.382Z,99564.06
2022-10-30T02:42:55.015Z,99566.72
2022-10-30T02:43:57.261Z,99558.28
2022-10-30T02:44:59.520Z,99562.44
2022-10-30T02:46:01.805Z,99568.78
2022-10-30T02:47:04.283Z,99557.81
2022-10-30T02:48:07.195Z,99565.00
2022-10-30T02:49:09.585Z,99563.66
2022-10-30T02:50:11.769Z,99561.38
2022-10-30T02:51:14.113Z,99553.34
2022-10-30T02:52:16.547Z,99558.03
2022-10-30T02:53:18.768Z,99559.75
2022-10-30T02:54:22.246Z,99554.16
2022-10-30T02:55:24.809Z,99555.03
2022-10-30T02:56:28.890Z,99562.16
2022-10-30T02:57:31.933Z,99559.50
2022-10-30T02:58:34.464Z,99556.56
2022-10-30T02:59:39.471Z,99556.31
2022-10-30T03:00:42.620Z,99551.41
2022-10-30T03:01:45.891Z,99551.97
2022-10-30T03:02:48.168Z,99552.56
2022-10-30T03:03:51.087Z,99555.25
2022-10-30T03:04:53.330Z,99556.19
2022-10-30T03:05:55.570Z,99560.72
2022-10-30T03:06:57.736Z,99555.13
2022-10-30T03:08:00.351Z,99560.78
2022-10-30T03:09:03.880Z,99556.56
2022-10-30T03:10:06.501Z,99551.66
2022-10-30T03:11:15.140Z,99554.38
2022-10-30T03:12:17.635Z,99552.72
2022-10-30T03:13:20.863Z,99552.09
2022-10-30T03:14:23.085Z,99551.19
2022-10-30T03:15:25.315Z,99550.97
2022-10-30T03:16:31.972Z,99550.91
2022-10-30T03:17:34.411Z,99548.91
2022-10-30T03:18:37.148Z,99553.38
2022-10-30T03:19:44.308Z,99554.19
2022-10-30T03:20:47.060Z,99556.81
2022-10-30T03:21:50.280Z,99550.69
2022-10-30T03:22:52.648Z,99560.38
2022-10-30T03:23:55.328Z,99558.66
2022-10-30T03:24:57.906Z,99552.19
2022-10-30T03:26:00.664Z,99554.06
2022-10-30T03:27:03.252Z,99560.88
2022-10-30T03:28:05.487Z,99565.28
2022-10-30T03:29:07.834Z,99562.66
2022-10-30T03:30:10.531Z,99558.19
2022-10-30T03:31:16.739Z,99555.75
2022-10-30T03:32:19.205Z,99559.31
2022-10-30T03:33:29.045Z,99567.28
2022-10-30T03:34:32.358Z,99561.28
2022-10-30T03:35:36.702Z,99563.16
2022-10-30T03:36:39.632Z,99564.97
2022-10-30T03:37:41.933Z,99565.91
2022-10-30T03:38:44.242Z,99572.81
2022-10-30T03:39:50.367Z,99567.78
2022-10-30T03:40:56.832Z,99567.03
2022-10-30T03:42:00.053Z,99565.22
2022-10-30T03:43:03.110Z,99568.78
2022-10-30T03:44:05.309Z,99577.44
2022-10-30T03:45:07.982Z,99574.03
2022-10-30T03:46:11.218Z,99565.16
2022-10-30T03:47:13.870Z,99565.84
2022-10-30T03:48:21.285Z,99575.44
2022-10-30T03:49:23.515Z,99570.25
2022-10-30T03:50:25.835Z,99577.13
2022-10-30T03:51:28.042Z,99572.66
2022-10-30T03:52:30.313Z,99572.66
2022-10-30T03:53:33.099Z,99577.81
2022-10-30T03:54:35.339Z,99575.88
2022-10-30T03:55:37.518Z,99571.47
2022-10-30T03:56:39.697Z,99585.59
2022-10-30T03:57:43.795Z,99587.03
2022-10-30T03:58:50.520Z,99576.44
2022-10-30T03:59:56.529Z,99583.41
2022-10-30T04:01:16.629Z,99582.34
2022-10-30T04:02:23.007Z,99575.03
2022-10-30T04:03:25.279Z,99579.25
2022-10-30T04:04:27.507Z,99574.56
2022-10-30T04:05:31.665Z,99576.44
2022-10-30T04:06:33.885Z,99574.00
2022-10-30T04:07:37.038Z,99572.81
2022-10-30T04:08:39.353Z,99576.34
2022-10-30T04:09:41.762Z,99573.41
2022-10-30T04:10:45.780Z,99568.88
2022-10-30T04:11:48.021Z,99573.94
2022-10-30T04:12:51.099Z,99575.50
2022-10-30T04:13:53.384Z,99571.13
2022-10-30T04:14:56.810Z,99582.47
2022-10-30T04:15:59.016Z,99569.47
2022-10-30T04:17:02.349Z,99574.59
2022-10-30T04:18:04.757Z,99566.63
2022-10-30T04:19:07.468Z,99574.47
2022-10-30T04:20:10.910Z,99578.78
2022-10-30T04:21:13.130Z,99567.31
2022-10-30T04:22:15.623Z,99581.16
2022-10-30T04:23:19.811Z,99569.84
2022-10-30T04:24:22.239Z,99572.47
2022-10-30T04:25:30.916Z,99577.69
2022-10-30T04:26:35.541Z,99576.91
2022-10-30T04:27:45.025Z,99576.03
2022-10-30T04:28:48.610Z,99580.53
2022-10-30T04:29:50.833Z,99578.72
2022-10-30T04:30:53.413Z,99572.13
2022-10-30T04:31:55.676Z,99572.81
2022-10-30T04:32:58.702Z,99569.28
2022-10-30T04:34:01.312Z,99571.84
2022-10-30T04:35:04.498Z,99569.47
2022-10-30T04:36:07.124Z,99575.78
2022-10-30T04:37:09.393Z,99572.09
2022-10-30T04:38:14.009Z,99566.72
2022-10-30T04:39:17.737Z,99568.72
2022-10-30T04:40:21.249Z,99570.41
2022-10-30T04:41:29.788Z,99573.91
2022-10-30T04:42:39.559Z,99563.25
2022-10-30T04:43:41.824Z,99568.47
2022-10-30T04:44:44.009Z,99573.78
2022-10-30T04:45:46.291Z,99573.84
2022-10-30T04:46:48.585Z,99565.66
2022-10-30T04:47:50.879Z,99565.81
2022-10-30T04:48:53.184Z,99561.41
2022-10-30T04:49:55.600Z,99565.81
2022-10-30T04:51:00.766Z,99567.78
2022-10-30T04:52:04.049Z,99572.72
2022-10-30T04:53:15.052Z,99578.66
2022-10-30T04:54:17.678Z,99575.25
2022-10-30T04:55:21.230Z,99561.88
2022-10-30T04:56:23.520Z,99571.69
2022-10-30T04:57:25.782Z,99573.72
2022-10-30T04:58:31.263Z,99573.91
2022-10-30T04:59:38.790Z,99563.25
2022-10-30T05:00:41.115Z,99568.47
2022-10-30T05:01:48.752Z,99569.16
2022-10-30T05:02:52.151Z,99559.53
2022-10-30T05:03:54.992Z,99555.97
2022-10-30T05:04:57.422Z,99564.72
2022-10-30T05:06:06.708Z,99561.03
2022-10-30T05:07:09.110Z,99552.22
2022-10-30T05:08:11.319Z,99554.91
2022-10-30T05:09:13.702Z,99560.94
2022-10-30T05:10:18.250Z,99562.16
2022-10-30T05:11:20.526Z,99556.34
2022-10-30T05:12:22.828Z,99563.59
2022-10-30T05:13:29.275Z,99555.84
2022-10-30T05:14:32.517Z,99568.03
2022-10-30T05:15:34.709Z,99564.41
2022-10-30T05:16:37.078Z,99565.25
2022-10-30T05:17:41.324Z,99561.72
2022-10-30T05:18:44.328Z,99562.03
2022-10-30T05:19:47.058Z,99560.88
2022-10-30T05:20:49.307Z,99560.94
2022-10-30T05:21:51.996Z,99557.53
2022-10-30T05:22:56.116Z,99559.22
2022-10-30T05:23:58.345Z,99556.53
2022-10-30T05:25:01.075Z,99552.28
2022-10-30T05:26:03.394Z,99549.56
2022-10-30T05:27:06.303Z,99557.41
2022-10-30T05:28:10.210Z,99557.47
2022-10-30T05:29:19.657Z,99554.97
2022-10-30T05:30:22.038Z,99556.59
2022-10-30T05:31:24.246Z,99555.59
2022-10-30T05:32:32.229Z,99552.06
2022-10-30T05:33:34.380Z,99552.00
2022-10-30T05:34:36.593Z,99561.69
2022-10-30T05:35:39.744Z,99553.78
2022-10-30T05:36:42.231Z,99550.34
2022-10-30T05:37:45.721Z,99552.84
2022-10-30T05:38:48.074Z,99552.91
2022-10-30T05:39:59.073Z,99561.22
2022-10-30T05:41:03.560Z,99556.75
2022-10-30T05:42:09.815Z,99565.19
2022-10-30T05:43:18.263Z,99560.19
2022-10-30T05:44:34.355Z,99553.91
2022-10-30T05:45:43.946Z,99564.16
2022-10-30T05:46:46.177Z,99554.34
2022-10-30T05:47:58.989Z,99557.78
2022-10-30T05:49:01.471Z,99561.47
2022-10-30T05:50:06.113Z,99556.03
2022-10-30T05:51:08.443Z,99568.31
2022-10-30T05:52:12.713Z,99557.06
2022-10-30T05:53:15.464Z,99550.47
2022-10-30T05:54:19.089Z,99560.91
2022-10-30T05:55:47.706Z,99557.84
2022-10-30T05:56:58.114Z,99564.94
2022-10-30T05:58:02.543Z,99568.56
2022-10-30T05:59:05.334Z,99561.34
2022-10-30T06:00:08.285Z,99561.84
2022-10-30T06:01:18.056Z,99568.69
2022-10-30T06:02:25.052Z,99569.28
2022-10-30T06:03:27.403Z,99567.41
2022-10-30T06:04:30.867Z,99566.66
2022-10-30T06:05:36.286Z,99577.19
2022-10-30T06:06:38.461Z,99573.28
2022-10-30T06:07:40.676Z,99571.69
2022-10-30T06:08:42.886Z,99567.28
2022-10-30T06:10:05.683Z,99569.66
2022-10-30T06:11:18.777Z,99571.50
2022-10-30T06:12:26.826Z,99574.13
2022-10-30T06:13:49.249Z,99582.81
2022-10-30T06:14:56.828Z,99577.44
2022-10-30T06:15:59.172Z,99581.78
2022-10-30T06:17:09.661Z,99580.19
2022-10-30T06:18:34.463Z,99575.72
2022-10-30T06:19:44.389Z,99583.75
2022-10-30T06:21:00.932Z,99582.00
2022-10-30T06:22:21.870Z,99581.16
2022-10-30T06:23:30.829Z,99586.53
2022-10-30T06:24:38.710Z,99580.66
2022-10-30T06:25:59.536Z,99588.72
2022-10-30T06:27:07.032Z,99585.75
2022-10-30T06:28:11.142Z,99586.44
2022-10-30T06:29:13.406Z,99582.16
2022-10-30T06:30:16.304Z,99591.47
2022-10-30T06:31:18.731Z,99598.31
2022-10-30T06:32:21.944Z,99599.63
2022-10-30T06:33:24.951Z,99597.97
2022-10-30T06:34:27.789Z,99601.22
2022-10-30T06:35:30.665Z,99601.22
2022-10-30T06:36:32.940Z,99614.06
2022-10-30T06:37:35.280Z,99616.09
2022-10-30T06:38:43.719Z,99606.78
2022-10-30T06:39:48.628Z,99605.53
2022-10-30T06:41:11.099Z,99612.03
2022-10-30T06:42:32.734Z,99614.06
2022-10-30T06:43:44.005Z,99607.69
2022-10-30T06:44:55.927Z,99612.22
2022-10-30T06:45:58.328Z,99604.75
2022-10-30T06:47:00.777Z,99609.81
2022-10-30T06:48:03.461Z,99609.06
2022-10-30T06:49:10.907Z,99612.00
2022-10-30T06:50:19.411Z,99610.28
2022-10-30T06:51:29.269Z,99609.03
2022-10-30T06:52:34.683Z,99611.06
2022-10-30T06:53:38.137Z,99599.56
2022-10-30T06:55:10.553Z,99600.00
2022-10-30T06:56:31.381Z,99605.03
2022-10-30T06:57:58.367Z,99611.28
2022-10-30T06:59:13.768Z,99614.25
2022-10-30T07:00:28.725Z,99610.31
2022-10-30T07:01:55.677Z,99607.19
2022-10-30T07:03:03.048Z,99606.16
2022-10-30T07:04:05.906Z,99610.38
2022-10-30T07:05:08.317Z,99615.28
2022-10-30T07:06:11.133Z,99604.88
2022-10-30T07:07:15.000Z,99622.63
2022-10-30T07:08:17.416Z,99618.34
2022-10-30T07:09:19.708Z,99615.81
2022-10-30T07:10:21.986Z,99623.75
2022-10-30T07:11:45.733Z,99617.94
2022-10-30T07:13:02.624Z,99622.25
2022-10-30T07:14:31.687Z,99629.22
2022-10-30T07:16:03.931Z,99636.63
2022-10-30T07:17:11.427Z,99633.41
2022-10-30T07:18:15.016Z,99639.28
2022-10-30T07:19:17.446Z,99645.03
2022-10-30T07:20:19.992Z,99635.78
2022-10-30T07:21:22.892Z,99649.69
2022-10-30T07:22:25.150Z,99645.75
2022-10-30T07:23:29.166Z,99648.69
2022-10-30T07:24:41.904Z,99635.97
2022-10-30T07:25:47.075Z,99641.84
2022-10-30T07:27:05.646Z,99632.28
2022-10-30T07:28:14.030Z,99644.13
2022-10-30T07:29:28.121Z,99644.28
2022-10-30T07:30:59.578Z,99635.09
2022-10-30T07:32:36.858Z,99643.84
2022-10-30T07:34:05.344Z,99646.16
2022-10-30T07:35:24.292Z,99645.63
2022-10-30T07:36:26.462Z,99643.81
2022-10-30T07:37:39.528Z,99645.03
2022-10-30T07:38:43.985Z,99657.44
2022-10-30T07:40:15.521Z,99663.41
2022-10-30T07:41:25.862Z,99658.25
2022-10-30T07:42:48.093Z,99648.19
2022-10-30T07:44:22.695Z,99656.00
2022-10-30T07:45:48.754Z,99650.13
2022-10-30T07:46:57.104Z,99644.72
2022-10-30T07:48:19.572Z,99659.75
2022-10-30T07:49:31.397Z,99652.03
2022-10-30T07:50:37.600Z,99661.94
2022-10-30T07:51:39.723Z,99662.06
2022-10-30T07:52:41.951Z,99656.75
2022-10-30T07:53:44.428Z,99663.91
2022-10-30T07:54:46.719Z,99665.50
2022-10-30T07:56:17.889Z,99670.84
2022-10-30T07:57:37.130Z,99674.97
2022-10-30T07:59:05.882Z,99671.22
2022-10-30T08:00:14.458Z,99671.56
2022-10-30T08:01:16.711Z,99671.13
2022-10-30T08:02:19.324Z,99666.25
2022-10-30T08:03:47.864Z,99670.16
2022-10-30T08:04:58.098Z,99673.06
2022-10-30T08:06:27.359Z,99672.72
2022-10-30T08:07:37.487Z,99678.03
2022-10-30T08:08:43.116Z,99672.53
2022-10-30T08:09:57.438Z,99677.66
2022-10-30T08:10:59.858Z,99679.56
2022-10-30T08:12:02.026Z,99655.59
2022-10-30T08:13:04.278Z,99668.13
2022-10-30T08:14:06.894Z,99666.53
2022-10-30T08:15:09.554Z,99665.03
2022-10-30T08:16:12.840Z,99663.44
2022-10-30T08:17:15.230Z,99668.19
2022-10-30T08:18:19.269Z,99665.81
2022-10-30T08:19:22.703Z,99668.19
2022-10-30T08:20:25.607Z,99671.22
2022-10-30T08:21:27.841Z,99667.72
2022-10-30T08:22:50.978Z,99671.31
2022-10-30T08:23:56.973Z,99668.47
2022-10-30T08:25:02.927Z,99672.81
2022-10-30T08:26:06.620Z,99672.44
2022-10-30T08:27:11.657Z,99675.88
2022-10-30T08:28:14.497Z,99672.16
2022-10-30T08:29:19.089Z,99673.97
2022-10-30T08:30:25.720Z,99671.84
2022-10-30T08:31:30.594Z,99676.13
2022-10-30T08:32:38.609Z,99676.22
2022-10-30T08:34:13.429Z,99666.59
2022-10-30T08:35:33.060Z,99673.47
2022-10-30T08:36:35.544Z,99674.34
2022-10-30T08:37:40.573Z,99672.25
2022-10-30T08:38:42.879Z,99670.41
2022-10-30T08:39:50.340Z,99681.19
2022-10-30T08:41:22.031Z,99676.50
2022-10-30T08:42:31.228Z,99671.47
2022-10-30T08:43:38.903Z,99677.09
2022-10-30T08:44:41.310Z,99666.56
2022-10-30T08:46:18.336Z,99670.28
2022-10-30T08:47:20.617Z,99658.72
2022-10-30T08:48:23.038Z,99667.41
2022-10-30T08:49:25.951Z,99663.88
2022-10-30T08:50:33.002Z,99666.31
2022-10-30T08:51:35.714Z,99674.22
2022-10-30T08:52:37.932Z,99662.59
2022-10-30T08:53:40.334Z,99664.44
2022-10-30T08:54:47.279Z,99667.22
2022-10-30T08:55:51.494Z,99669.53
2022-10-30T08:57:04.206Z,99671.44
2022-10-30T08:58:07.771Z,99666.03
2022-10-30T08:59:15.843Z,99663.38
2022-10-30T09:00:24.574Z,99667.44
2022-10-30T09:01:55.857Z,99667.41
2022-10-30T09:03:16.788Z,99672.19
2022-10-30T09:04:36.833Z,99667.41
2022-10-30T09:06:14.186Z,99675.19
2022-10-30T09:07:48.382Z,99676.09
2022-10-30T09:09:09.556Z,99675.59
2022-10-30T09:10:25.619Z,99674.78
2022-10-30T09:11:29.356Z,99672.63
2022-10-30T09:12:33.429Z,99671.59
2022-10-30T09:13:36.293Z,99671.22
2022-10-30T09:14:41.455Z,99670.16
2022-10-30T09:15:45.081Z,99679.13
2022-10-30T09:16:47.920Z,99680.19
2022-10-30T09:18:03.924Z,99679.88
2022-10-30T09:19:06.305Z,99680.50
2022-10-30T09:20:09.203Z,99673.31
2022-10-30T09:21:14.489Z,99680.31
2022-10-30T09:22:23.859Z,99675.38
2022-10-30T09:23:26.304Z,99680.88
2022-10-30T09:24:40.160Z,99678.41
2022-10-30T09:26:12.725Z,99677.50
2022-10-30T09:27:27.479Z,99680.03
2022-10-30T09:28:31.901Z,99675.63
2022-10-30T09:29:56.669Z,99681.38
2022-10-30T09:31:01.655Z,99680.56
2022-10-30T09:32:10.327Z,99674.56
2022-10-30T09:33:25.696Z,99670.13
2022-10-30T09:34:46.547Z,99673.19
2022-10-30T09:35:57.242Z,99682.47
2022-10-30T09:37:05.263Z,99680.69
2022-10-30T09:38:14.765Z,99686.41
2022-10-30T09:39:17.283Z,99682.91
2022-10-30T09:40:29.828Z,99680.59
2022-10-30T09:41:54.030Z,99690.53
2022-10-30T09:43:28.242Z,99691.16
2022-10-30T09:45:23.240Z,99693.41
2022-10-30T09:46:50.968Z,99693.50
2022-10-30T09:48:20.871Z,99689.75
2022-10-30T09:49:49.027Z,99690.94
2022-10-30T09:51:24.032Z,99691.25
2022-10-30T09:52:59.199Z,99689.75
2022-10-30T09:54:05.553Z,99691.78
2022-10-30T09:55:21.775Z,99693.31
2022-10-30T09:56:36.229Z,99692.84
2022-10-30T09:57:54.557Z,99695.09
2022-10-30T09:59:33.677Z,99696.66
2022-10-30T10:01:09.026Z,99689.47
2022-10-30T10:02:21.746Z,99685.22
2022-10-30T10:05:24.532Z,99689.63
2022-10-30T10:06:51.632Z,99681.97
2022-10-30T10:08:15.992Z,99692.19
2022-10-30T10:09:33.628Z,99689.50
2022-10-30T10:11:03.840Z,99688.91
2022-10-30T10:12:23.754Z,99687.31
2022-10-30T10:13:35.113Z,99690.13
2022-10-30T10:14:47.480Z,99688.31
2022-10-30T10:15:55.499Z,99690.00
2022-10-30T10:17:01.773Z,99685.84
2022-10-30T10:18:13.126Z,99686.31
2022-10-30T10:19:23.212Z,99686.31
2022-10-30T10:20:41.232Z,99690.41
2022-10-30T10:21:47.808Z,99683.16
2022-10-30T10:22:51.082Z,99681.00
2022-10-30T10:23:56.168Z,99686.84
2022-10-30T10:24:58.442Z,99691.91
2022-10-30T10:26:11.807Z,99684.28
2022-10-30T10:27:46.583Z,99691.16
2022-10-30T10:29:16.464Z,99684.22
2022-10-30T10:30:22.626Z,99690.50
2022-10-30T10:31:30.400Z,99685.84
2022-10-30T10:33:06.640Z,99681.72
2022-10-30T10:34:26.784Z,99687.28
2022-10-30T10:35:31.586Z,99693.66
2022-10-30T10:36:59.591Z,99683.81
2022-10-30T10:38:10.574Z,99687.28
2022-10-30T10:39:28.497Z,99678.56
2022-10-30T10:41:10.171Z,99677.38
2022-10-30T10:42:39.956Z,99672.22
2022-10-30T10:44:06.736Z,99680.75
2022-10-30T10:45:41.145Z,99676.31
2022-10-30T10:47:27.608Z,99675.91
2022-10-30T10:48:44.839Z,99679.47
2022-10-30T10:50:10.580Z,99674.00
2022-10-30T10:51:17.974Z,99666.13
2022-10-30T10:52:38.295Z,99674.31
2022-10-30T10:54:05.613Z,99666.78
2022-10-30T10:55:16.508Z,99667.63
2022-10-30T10:56:22.154Z,99668.78
2022-10-30T10:57:32.841Z,99667.94
2022-10-30T10:58:50.815Z,99665.72
2022-10-30T11:00:20.945Z,99664.34
2022-10-30T11:01:39.659Z,99663.91
2022-10-30T11:02:50.857Z,99673.34
2022-10-30T11:04:00.166Z,99671.13
2022-10-30T11:05:11.493Z,99668.97
2022-10-30T11:06:24.727Z,99659.19
2022-10-30T11:07:31.516Z,99662.84
2022-10-30T11:08:35.329Z,99667.88
2022-10-30T11:09:37.684Z,99663.03
2022-10-30T11:10:40.076Z,99659.47
2022-10-30T11:11:44.417Z,99662.91
2022-10-30T11:12:46.940Z,99662.34
2022-10-30T11:13:49.744Z,99661.66
2022-10-30T11:14:51.993Z,99656.31
2022-10-30T11:16:01.409Z,99658.47
2022-10-30T11:17:15.334Z,99656.19
2022-10-30T11:18:17.617Z,99660.44
2022-10-30T11:19:19.971Z,99652.31
2022-10-30T11:20:31.025Z,99655.41
2022-10-30T11:21:42.109Z,99654.88
2022-10-30T11:22:50.065Z,99652.88
2022-10-30T11:23:53.554Z,99650.63
2022-10-30T11:24:55.752Z,99645.81
2022-10-30T11:25:58.392Z,99645.16
2022-10-30T11:27:22.424Z,99645.03
2022-10-30T11:28:42.703Z,99650.56
2022-10-30T11:30:00.410Z,99644.16
2022-10-30T11:31:34.626Z,99644.13
2022-10-30T11:32:36.833Z,99633.53
2022-10-30T11:33:39.030Z,99637.91
2022-10-30T11:34:41.219Z,99644.28
2022-10-30T11:35:43.444Z,99649.63
2022-10-30T11:36:47.825Z,99645.63
2022-10-30T11:38:13.686Z,99634.66
2022-10-30T11:39:22.729Z,99637.44
2022-10-30T11:40:25.089Z,99643.53
2022-10-30T11:41:27.366Z,99638.94
2022-10-30T11:42:29.760Z,99634.56
2022-10-30T11:43:31.982Z,99639.59
2022-10-30T11:44:42.541Z,99636.25
2022-10-30T11:45:45.119Z,99633.38
2022-10-30T11:46:47.292Z,99632.47
2022-10-30T11:47:49.765Z,99631.84
2022-10-30T11:48:54.957Z,99637.59
2022-10-30T11:50:00.131Z,99640.97
2022-10-30T11:51:03.834Z,99626.16
2022-10-30T11:52:08.282Z,99643.19
2022-10-30T11:53:21.458Z,99634.00
2022-10-30T11:54:24.287Z,99636.28
2022-10-30T11:55:45.326Z,99631.00
2022-10-30T11:56:50.904Z,99629.09
2022-10-30T11:57:57.151Z,99640.38
2022-10-30T11:59:02.263Z,99636.72
2022-10-30T12:00:24.424Z,99635.22
2022-10-30T12:01:29.957Z,99629.44
2022-10-30T12:02:42.670Z,99638.97
2022-10-30T12:03:44.934Z,99632.56
2022-10-30T12:04:47.255Z,99639.47
2022-10-30T12:05:50.386Z,99633.31
2022-10-30T12:07:08.165Z,99634.69
2022-10-30T12:08:10.430Z,99631.97
2022-10-30T12:09:20.897Z,99627.78
2022-10-30T12:10:28.104Z,99638.25
2022-10-30T12:11:33.214Z,99635.94
2022-10-30T12:12:42.657Z,99626.97
2022-10-30T12:13:44.963Z,99629.69
2022-10-30T12:14:47.161Z,99632.69
2022-10-30T12:16:02.853Z,99633.28
2022-10-30T12:17:05.945Z,99624.59
2022-10-30T12:18:16.902Z,99629.28
2022-10-30T12:19:22.669Z,99627.09
2022-10-30T12:20:25.862Z,99625.41
2022-10-30T12:21:30.870Z,99622.66
2022-10-30T12:22:34.746Z,99627.69
2022-10-30T12:23:38.292Z,99625.94
2022-10-30T12:24:43.824Z,99628.41
2022-10-30T12:25:48.951Z,99624.13
2022-10-30T12:26:54.850Z,99622.00
2022-10-30T12:28:08.063Z,99614.78
2022-10-30T12:29:16.583Z,99619.13
2022-10-30T12:30:20.688Z,99623.63
2022-10-30T12:31:54.720Z,99625.09
2022-10-30T12:33:39.291Z,99618.75
2022-10-30T12:34:46.924Z,99614.78
2022-10-30T12:35:49.000Z,99609.47
2022-10-30T12:37:01.375Z,99616.09
2022-10-30T12:38:04.645Z,99618.81
2022-10-30T12:39:20.360Z,99611.56
2022-10-30T12:40:38.677Z,99620.09
2022-10-30T12:41:45.333Z,99617.72
2022-10-30T12:43:12.759Z,99619.03
2022-10-30T12:44:22.144Z,99619.06
2022-10-30T12:45:31.618Z,99617.16
2022-10-30T12:46:42.260Z,99611.56
2022-10-30T12:47:52.668Z,99612.97
2022-10-30T12:49:21.456Z,99614.69
2022-10-30T12:50:27.706Z,99613.88
2022-10-30T12:51:38.755Z,99611.06
2022-10-30T12:52:47.787Z,99607.97
2022-10-30T12:54:13.630Z,99612.25
2022-10-30T12:55:36.070Z,99609.19
2022-10-30T12:56:44.042Z,99610.50
2022-10-30T12:57:54.780Z,99611.25
2022-10-30T12:59:12.357Z,99606.91
2022-10-30T13:00:16.961Z,99606.34
2022-10-30T13:01:57.998Z,99604.41
2022-10-30T13:03:06.330Z,99595.22
2022-10-30T13:04:17.593Z,99600.97
2022-10-30T13:05:32.618Z,99599.28
2022-10-30T13:06:45.771Z,99601.56
2022-10-30T13:07:58.367Z,99593.66
2022-10-30T13:09:15.280Z,99601.22
2022-10-30T13:10:35.606Z,99590.06
2022-10-30T13:11:57.905Z,99587.00
2022-10-30T13:13:12.086Z,99591.13
2022-10-30T13:14:20.087Z,99588.75
2022-10-30T13:15:30.554Z,99587.75
2022-10-30T13:16:32.855Z,99590.44
2022-10-30T13:17:35.038Z,99592.97
2022-10-30T13:18:37.954Z,99588.03
2022-10-30T13:19:42.065Z,99587.22
2022-10-30T13:21:02.813Z,99581.84
2022-10-30T13:22:26.035Z,99591.19
2022-10-30T13:23:51.935Z,99581.84
2022-10-30T13:25:14.125Z,99586.34
2022-10-30T13:26:23.411Z,99585.78
2022-10-30T13:27:41.812Z,99584.66
2022-10-30T13:28:53.553Z,99583.06
2022-10-30T13:30:08.805Z,99585.31
2022-10-30T13:31:22.206Z,99578.00
2022-10-30T13:32:42.253Z,99584.09
2022-10-30T13:33:57.513Z,99577.56